Time;durP1;ratioP1;P1;durP2;ratioP2;P2;SDS_P1;SDS_P2;PMS_P1;PMS_P2;Temp;Humidity;BMP_temperature;BMP_pressure;BME280_temperature;BME280_humidity;BME280_pressure;Samples;Min_cycle;Max_cycle;Signal;HPM_P1;HPM_P2
2021/03/26 00:00:55;;;;;;;12.40;8.25;;;9.90;96.30;;;;;;5111249;28;20080;-50
2021/03/26 00:03:24;;;;;;;13.00;7.53;;;9.90;96.40;;;;;;5124662;22;20039;-53
2021/03/26 00:05:54;;;;;;;17.13;8.73;;;9.80;96.50;;;;;;5092603;28;20024;-50
2021/03/26 00:08:19;;;;;;;11.25;7.82;;;9.90;96.50;;;;;;5110727;28;20393;-48
2021/03/26 00:10:45;;;;;;;14.50;8.20;;;9.90;96.50;;;;;;5092474;28;20054;-47
2021/03/26 00:13:11;;;;;;;12.27;7.45;;;9.90;96.70;;;;;;5109920;28;20396;-49
2021/03/26 00:15:37;;;;;;;15.63;8.43;;;9.90;96.80;;;;;;5092536;28;20023;-50
2021/03/26 00:18:04;;;;;;;12.02;7.90;;;10.00;96.50;;;;;;5092593;28;20404;-54
2021/03/26 00:20:30;;;;;;;15.43;7.95;;;10.00;96.60;;;;;;5110689;28;20028;-51
2021/03/26 00:22:56;;;;;;;15.52;8.70;;;10.00;96.70;;;;;;5109923;28;20042;-52
2021/03/26 00:25:21;;;;;;;14.88;8.35;;;9.90;96.70;;;;;;5110627;28;20174;-51
2021/03/26 00:27:47;;;;;;;12.32;8.38;;;9.90;96.90;;;;;;5110742;28;20023;-51
2021/03/26 00:30:13;;;;;;;11.98;7.88;;;9.90;96.90;;;;;;5110873;28;20400;-51
2021/03/26 00:32:39;;;;;;;12.88;7.95;;;9.90;97.00;;;;;;5110270;28;20091;-49
2021/03/26 00:35:11;;;;;;;12.45;8.00;;;9.80;97.10;;;;;;5110531;28;20501;-53
2021/03/26 00:37:37;;;;;;;12.35;7.20;;;9.70;97.30;;;;;;5110523;28;20060;-51
2021/03/26 00:40:05;;;;;;;13.25;9.90;;;9.60;97.50;;;;;;5110906;28;20027;-48
2021/03/26 00:42:30;;;;;;;11.43;7.75;;;9.60;97.70;;;;;;5110233;28;20028;-48
2021/03/26 00:44:57;;;;;;;14.20;8.43;;;9.40;98.00;;;;;;5110126;28;20039;-51
2021/03/26 00:47:23;;;;;;;14.73;7.75;;;9.30;98.20;;;;;;5110529;28;20035;-50
2021/03/26 00:49:48;;;;;;;13.77;8.65;;;9.30;98.30;;;;;;5110562;28;20496;-49
2021/03/26 00:52:14;;;;;;;21.77;10.45;;;9.10;98.60;;;;;;5110299;28;20034;-48
2021/03/26 00:54:39;;;;;;;12.40;8.20;;;9.10;98.80;;;;;;5109737;28;20023;-53
2021/03/26 00:57:05;;;;;;;13.52;8.45;;;9.10;98.60;;;;;;5110425;28;20473;-50
2021/03/26 00:59:31;;;;;;;15.60;9.05;;;9.10;98.60;;;;;;5110360;28;20024;-50
2021/03/26 01:01:56;;;;;;;17.17;7.72;;;9.10;98.70;;;;;;5110457;28;20068;-49
2021/03/26 01:04:22;;;;;;;13.48;8.30;;;9.10;98.60;;;;;;5109691;28;20300;-53
2021/03/26 01:06:47;;;;;;;12.30;7.80;;;9.10;98.60;;;;;;5110653;28;20404;-48
2021/03/26 01:09:13;;;;;;;12.85;8.48;;;9.00;98.70;;;;;;5110313;28;20057;-50
2021/03/26 01:11:40;;;;;;;16.48;9.30;;;9.00;98.90;;;;;;5110422;28;20020;-49
2021/03/26 01:14:11;;;;;;;14.40;7.75;;;9.00;98.80;;;;;;5112862;28;20020;-49
2021/03/26 01:16:37;;;;;;;12.80;8.85;;;8.90;98.90;;;;;;5114189;28;20537;-51
2021/03/26 01:19:03;;;;;;;10.77;7.95;;;8.90;98.90;;;;;;5095664;28;20063;-50
2021/03/26 01:21:31;;;;;;;12.75;8.90;;;8.90;98.90;;;;;;5113829;28;20034;-49
2021/03/26 01:23:57;;;;;;;13.18;8.35;;;8.90;99.00;;;;;;5113117;28;20492;-48
2021/03/26 01:26:24;;;;;;;18.67;8.27;;;8.70;99.20;;;;;;5113779;28;20113;-52
2021/03/26 01:28:50;;;;;;;12.80;7.97;;;8.70;99.30;;;;;;5114068;28;20118;-50
2021/03/26 01:31:16;;;;;;;14.45;8.32;;;8.70;99.40;;;;;;5113736;28;20051;-51
2021/03/26 01:33:42;;;;;;;19.70;8.63;;;8.70;99.40;;;;;;5112997;28;20031;-52
2021/03/26 01:36:08;;;;;;;14.98;8.30;;;8.70;99.40;;;;;;5113524;28;20365;-50
2021/03/26 01:38:34;;;;;;;15.63;8.82;;;8.80;99.40;;;;;;5113709;28;20031;-49
2021/03/26 01:41:06;;;;;;;14.88;8.30;;;8.80;99.20;;;;;;5113676;28;20057;-50
2021/03/26 01:43:37;;;;;;;15.38;8.35;;;8.80;99.20;;;;;;5112776;28;20554;-51
2021/03/26 01:46:04;;;;;;;15.20;8.55;;;8.90;99.40;;;;;;5113469;28;20035;-54
2021/03/26 01:48:33;;;;;;;21.92;10.70;;;8.80;99.40;;;;;;5113344;28;20120;-50
2021/03/26 01:51:02;;;;;;;17.92;9.05;;;8.90;99.40;;;;;;5113282;28;20023;-48
2021/03/26 01:53:28;;;;;;;15.02;8.48;;;8.90;99.20;;;;;;5112484;28;20368;-49
2021/03/26 01:55:56;;;;;;;14.20;8.23;;;9.00;99.20;;;;;;5113624;28;20107;-54
2021/03/26 01:58:25;;;;;;;12.73;8.48;;;9.00;99.10;;;;;;5113470;28;20027;-49
2021/03/26 02:00:53;;;;;;;16.85;9.48;;;8.80;99.30;;;;;;5113541;28;20032;-49
2021/03/26 02:03:19;;;;;;;16.80;9.10;;;8.80;99.30;;;;;;5094031;28;20110;-51
2021/03/26 02:05:45;;;;;;;11.77;8.65;;;8.80;99.60;;;;;;5113431;28;20464;-54
2021/03/26 02:08:17;;;;;;;17.45;9.65;;;8.80;99.50;;;;;;5113195;28;20420;-52
2021/03/26 02:10:43;;;;;;;15.38;9.23;;;8.80;99.50;;;;;;5112898;28;20035;-52
2021/03/26 02:13:20;;;;;;;16.17;9.38;;;8.90;99.30;;;;;;5112424;28;20023;-53
2021/03/26 02:15:47;;;;;;;14.02;8.82;;;8.90;99.20;;;;;;5113000;28;20027;-53
2021/03/26 02:18:20;;;;;;;14.95;9.55;;;8.80;99.40;;;;;;5113003;28;20031;-50
2021/03/26 02:20:50;;;;;;;17.52;9.55;;;8.80;99.50;;;;;;5112907;28;20480;-50
2021/03/26 02:23:22;;;;;;;18.30;9.98;;;8.90;99.50;;;;;;5093576;28;20035;-53
2021/03/26 02:25:49;;;;;;;14.18;8.50;;;8.80;99.50;;;;;;5111563;28;20130;-53
2021/03/26 02:28:16;;;;;;;14.60;9.23;;;8.80;99.50;;;;;;5094086;28;20028;-50
2021/03/26 02:30:45;;;;;;;17.10;9.50;;;8.90;99.60;;;;;;5112741;28;20027;-52
2021/03/26 02:33:13;;;;;;;16.92;10.40;;;8.90;99.40;;;;;;5093604;28;20306;-49
2021/03/26 02:35:49;;;;;;;14.68;9.82;;;8.90;99.40;;;;;;5094192;28;20046;-51
2021/03/26 02:38:18;;;;;;;16.73;9.90;;;8.80;99.60;;;;;;5112516;28;20065;-51
2021/03/26 02:40:53;;;;;;;15.35;10.15;;;8.80;99.50;;;;;;5094402;28;20023;-52
2021/03/26 02:43:25;;;;;;;13.23;9.68;;;8.80;99.90;;;;;;5111696;28;20034;-50
2021/03/26 02:45:59;;;;;;;15.98;10.40;;;8.80;99.80;;;;;;5112534;28;20084;-52
2021/03/26 02:48:37;;;;;;;19.40;10.98;;;8.80;99.80;;;;;;5112543;28;20038;-50
2021/03/26 02:51:10;;;;;;;17.40;10.35;;;8.80;99.90;;;;;;5112507;28;20047;-50
2021/03/26 02:54:15;;;;;;;21.17;10.75;;;8.80;99.90;;;;;;5111789;28;20413;-52
2021/03/26 02:56:47;;;;;;;20.73;9.80;;;8.80;99.90;;;;;;5112313;28;20030;-54
2021/03/26 02:59:21;;;;;;;16.70;9.52;;;8.80;99.80;;;;;;5093801;28;20034;-55
2021/03/26 03:01:52;;;;;;;15.27;9.70;;;8.80;99.70;;;;;;5112250;28;20055;-49
2021/03/26 03:04:26;;;;;;;17.90;11.05;;;8.80;99.80;;;;;;5111155;28;20039;-52
2021/03/26 03:06:58;;;;;;;17.02;9.48;;;8.80;99.90;;;;;;5094045;28;20589;-53
2021/03/26 03:09:26;;;;;;;20.35;10.25;;;8.80;99.90;;;;;;5112013;28;20032;-51
2021/03/26 03:12:01;;;;;;;18.92;9.23;;;8.80;99.80;;;;;;5111901;28;20388;-52
2021/03/26 03:14:30;;;;;;;;;;;8.90;99.70;;;;;;5111402;28;20110;-53
2021/03/26 03:17:22;;;;;;;17.48;10.00;;;8.90;99.70;;;;;;5111924;28;19994;-53
2021/03/26 03:19:56;;;;;;;13.40;8.88;;;9.10;99.50;;;;;;5112394;28;20024;-53
2021/03/26 03:22:44;;;;;;;15.73;9.98;;;9.10;99.30;;;;;;5112115;28;20447;-49
2021/03/26 03:25:16;;;;;;;14.52;9.57;;;9.00;99.40;;;;;;5112199;28;20492;-50
2021/03/26 03:27:49;;;;;;;30.08;10.68;;;8.90;99.30;;;;;;5111637;28;20468;-51
2021/03/26 03:30:33;;;;;;;16.40;9.15;;;9.00;99.40;;;;;;5111675;28;20024;-49
2021/03/26 03:33:18;;;;;;;20.67;10.35;;;8.90;99.50;;;;;;5110717;28;20050;-53
2021/03/26 03:36:00;;;;;;;18.27;10.43;;;9.00;99.40;;;;;;5110842;28;20012;-50
2021/03/26 03:38:48;;;;;;;16.95;10.05;;;9.00;99.40;;;;;;5111612;28;20185;-52
2021/03/26 03:41:50;;;;;;;20.42;10.85;;;9.00;99.10;;;;;;5093094;28;20023;-51
2021/03/26 03:44:41;;;;;;;22.67;10.25;;;9.00;99.20;;;;;;5024777;28;20043;-53
2021/03/26 03:47:22;;;;;;;16.77;9.82;;;9.00;99.20;;;;;;5111223;28;20024;-49
2021/03/26 03:49:59;;;;;;;18.08;10.52;;;9.00;99.20;;;;;;5111669;28;20062;-52
2021/03/26 03:52:33;;;;;;;22.17;10.68;;;8.90;99.40;;;;;;5093064;28;20027;-49
2021/03/26 03:55:19;;;;;;;18.80;10.98;;;8.90;99.50;;;;;;5111344;28;20024;-51
2021/03/26 03:57:50;;;;;;;18.05;11.68;;;9.00;99.40;;;;;;5110571;28;20028;-51
2021/03/26 04:00:16;;;;;;;28.35;11.18;;;9.00;99.10;;;;;;5111266;28;20035;-54
2021/03/26 04:02:54;;;;;;;20.95;11.77;;;8.90;99.20;;;;;;5110202;28;20034;-51
2021/03/26 04:05:32;;;;;;;15.60;10.63;;;8.90;99.30;;;;;;5110936;28;20044;-55
2021/03/26 04:08:05;;;;;;;19.08;11.40;;;8.90;99.30;;;;;;5110900;28;20396;-52
2021/03/26 04:10:36;;;;;;;22.30;11.95;;;8.80;99.30;;;;;;5111228;28;20047;-50
2021/03/26 04:13:07;;;;;;;17.08;11.10;;;8.80;99.60;;;;;;5110525;28;20019;-51
2021/03/26 04:15:40;;;;;;;19.67;11.07;;;8.80;99.60;;;;;;5111182;28;20026;-54
2021/03/26 04:18:29;;;;;;;25.20;12.00;;;8.80;99.60;;;;;;5111240;28;20027;-50
2021/03/26 04:21:03;;;;;;;18.85;11.55;;;8.80;99.70;;;;;;5093095;28;20084;-50
2021/03/26 04:23:36;;;;;;;22.17;13.38;;;8.80;99.50;;;;;;5109164;28;20089;-51
2021/03/26 04:26:28;;;;;;;19.00;14.05;;;8.80;99.60;;;;;;5093285;28;20031;-51
2021/03/26 04:29:13;;;;;;;20.35;12.52;;;8.90;99.80;;;;;;5093382;28;20040;-52
2021/03/26 04:31:44;;;;;;;20.85;11.73;;;8.90;99.60;;;;;;5110100;28;20026;-50
2021/03/26 04:34:11;;;;;;;24.73;12.85;;;8.80;99.60;;;;;;5110359;28;20644;-52
2021/03/26 04:37:00;;;;;;;22.10;13.10;;;8.80;99.60;;;;;;5092683;28;20500;-55
2021/03/26 04:39:38;;;;;;;21.90;13.70;;;8.70;99.80;;;;;;5110802;28;20035;-52
2021/03/26 04:42:31;;;;;;;20.55;12.75;;;8.70;99.80;;;;;;5110742;28;20020;-49
2021/03/26 04:45:08;;;;;;;17.20;12.40;;;8.80;99.70;;;;;;5110193;28;20370;-51
2021/03/26 04:47:54;;;;;;;28.45;13.93;;;8.80;99.80;;;;;;5111093;28;20046;-49
2021/03/26 04:50:32;;;;;;;20.63;13.07;;;8.80;99.80;;;;;;5114825;28;20019;-53
2021/03/26 04:53:12;;;;;;;27.27;13.43;;;8.80;99.70;;;;;;5113969;28;20081;-50
2021/03/26 04:55:42;;;;;;;26.60;12.88;;;8.80;99.80;;;;;;5114892;28;20077;-49
2021/03/26 04:58:18;;;;;;;23.27;13.70;;;8.80;99.80;;;;;;5114621;28;20016;-48
2021/03/26 05:00:56;;;;;;;21.95;13.18;;;8.80;99.80;;;;;;5114640;28;20023;-51
2021/03/26 05:03:37;;;;;;;23.65;13.32;;;8.90;99.70;;;;;;5113759;28;20074;-48
2021/03/26 05:06:26;;;;;;;31.45;14.25;;;8.80;99.70;;;;;;5114493;28;20111;-50
2021/03/26 05:08:56;;;;;;;20.63;12.27;;;8.80;99.80;;;;;;5114481;28;20391;-53
2021/03/26 05:11:25;;;;;;;23.50;13.15;;;8.80;99.90;;;;;;5114314;28;20051;-53
2021/03/26 05:13:56;;;;;;;27.92;14.55;;;8.70;99.80;;;;;;5113650;28;20023;-49
2021/03/26 05:16:40;;;;;;;22.20;13.73;;;8.70;99.90;;;;;;5114232;28;20034;-51
2021/03/26 05:19:42;;;;;;;26.17;14.90;;;8.50;99.90;;;;;;5095812;28;20027;-53
2021/03/26 05:22:31;;;;;;;19.92;12.80;;;8.50;99.90;;;;;;5114412;28;20031;-52
2021/03/26 05:25:08;;;;;;;24.98;12.80;;;8.60;99.90;;;;;;5113716;28;20020;-49
2021/03/26 05:27:34;;;;;;;27.33;14.73;;;8.70;99.90;;;;;;5114010;28;20397;-54
2021/03/26 05:30:00;;;;;;;22.70;13.55;;;8.70;99.90;;;;;;5114050;28;20019;-51
2021/03/26 05:32:44;;;;;;;26.15;14.05;;;8.70;99.90;;;;;;5114055;28;20024;-49
2021/03/26 05:35:25;;;;;;;24.65;13.85;;;8.80;99.90;;;;;;5113889;28;20045;-49
2021/03/26 05:38:01;;;;;;;19.67;11.93;;;8.70;99.90;;;;;;5113935;28;20491;-51
2021/03/26 05:40:53;;;;;;;24.80;13.73;;;8.80;99.90;;;;;;5113855;28;20073;-51
2021/03/26 05:43:52;;;;;;;21.30;13.07;;;8.80;99.90;;;;;;5113159;28;20114;-50
2021/03/26 05:46:39;;;;;;;27.88;14.65;;;8.80;99.90;;;;;;5113627;28;20024;-50
2021/03/26 05:49:28;;;;;;;26.15;14.43;;;8.90;99.70;;;;;;5113901;28;20473;-53
2021/03/26 05:52:06;;;;;;;21.42;14.15;;;9.00;99.60;;;;;;5097629;28;20020;-51
2021/03/26 05:54:59;;;;;;;22.42;13.35;;;9.00;99.60;;;;;;5120785;28;20016;-51
2021/03/26 05:57:35;;;;;;;23.33;14.32;;;9.20;99.60;;;;;;5121473;28;20030;-51
2021/03/26 06:00:12;;;;;;;;;;;9.10;99.30;;;;;;5121078;28;20019;-50
2021/03/26 06:02:56;;;;;;;19.40;13.55;;;9.00;99.50;;;;;;5116471;28;20003;-53
2021/03/26 06:05:46;;;;;;;18.95;13.93;;;9.10;99.60;;;;;;5126519;22;20055;-47
2021/03/26 06:08:24;;;;;;;17.73;13.30;;;9.00;99.60;;;;;;5113499;28;20023;-52
2021/03/26 06:11:10;;;;;;;31.00;15.00;;;9.00;99.90;;;;;;5099808;28;20281;-45
2021/03/26 06:14:04;;;;;;;23.08;14.23;;;9.00;99.90;;;;;;5105912;28;20032;-49
2021/03/26 06:16:32;;;;;;;22.98;13.90;;;9.00;99.90;;;;;;5079594;28;20012;-52
2021/03/26 06:19:09;;;;;;;21.75;13.68;;;9.00;99.90;;;;;;5091487;28;20099;-53
2021/03/26 06:21:53;;;;;;;26.27;14.30;;;9.00;99.90;;;;;;5091536;28;20717;-47
2021/03/26 06:25:01;;;;;;;24.15;14.45;;;9.10;99.90;;;;;;5090953;28;20047;-52
2021/03/26 06:27:59;;;;;;;27.77;14.50;;;9.10;99.90;;;;;;5071518;28;20028;-47
2021/03/26 06:30:32;;;;;;;24.25;15.25;;;9.10;99.60;;;;;;5071873;28;20055;-48
2021/03/26 06:33:25;;;;;;;32.63;15.00;;;9.10;99.70;;;;;;5086614;28;20108;-60
2021/03/26 06:36:05;;;;;;;30.98;16.83;;;9.20;99.60;;;;;;5090414;28;20024;-58
2021/03/26 06:38:34;;;;;;;26.88;15.18;;;9.20;99.70;;;;;;5086799;28;20375;-51
2021/03/26 06:41:15;;;;;;;31.58;16.75;;;9.20;99.50;;;;;;5077851;28;20030;-55
2021/03/26 06:44:23;;;;;;;25.98;15.93;;;9.20;99.90;;;;;;5072584;28;20538;-53
2021/03/26 06:46:54;;;;;;;25.13;14.27;;;9.40;99.80;;;;;;5090348;28;20024;-52
2021/03/26 06:49:31;;;;;;;21.80;14.32;;;9.60;99.50;;;;;;5091473;28;20099;-48
2021/03/26 06:52:03;;;;;;;21.17;14.18;;;10.10;98.70;;;;;;5091172;28;20020;-49
2021/03/26 06:54:53;;;;;;;27.73;14.75;;;10.80;97.90;;;;;;5089944;28;20104;-51
2021/03/26 06:57:34;;;;;;;20.98;14.45;;;11.20;97.10;;;;;;5091461;28;20031;-54
2021/03/26 07:00:15;;;;;;;23.20;13.98;;;11.90;95.60;;;;;;5091566;28;20020;-48
2021/03/26 07:03:07;;;;;;;27.52;14.70;;;12.30;94.90;;;;;;5090292;28;20448;-51
2021/03/26 07:06:09;;;;;;;21.58;13.70;;;12.90;93.70;;;;;;5091137;28;20278;-50
2021/03/26 07:08:48;;;;;;;26.60;14.25;;;13.40;92.90;;;;;;5091254;28;20115;-54
2021/03/26 07:11:44;;;;;;;19.25;14.00;;;13.70;92.20;;;;;;5090715;28;20031;-54
2021/03/26 07:14:32;;;;;;;22.80;13.50;;;14.30;91.40;;;;;;5072140;28;20031;-53
2021/03/26 07:17:31;;;;;;;21.25;14.20;;;14.20;90.90;;;;;;5072713;28;20031;-54
2021/03/26 07:20:18;;;;;;;24.10;13.88;;;13.90;91.20;;;;;;5089592;28;20032;-49
2021/03/26 07:23:07;;;;;;;24.38;14.23;;;13.90;91.10;;;;;;5090248;28;20035;-55
2021/03/26 07:25:39;;;;;;;24.35;14.00;;;13.70;91.40;;;;;;5072078;28;20016;-55
2021/03/26 07:28:52;;;;;;;18.80;13.73;;;13.50;91.80;;;;;;5091220;28;20020;-55
2021/03/26 07:31:32;;;;;;;22.98;13.90;;;13.70;91.90;;;;;;4988050;28;20404;-52
2021/03/26 07:34:26;;;;;;;23.02;15.70;;;13.90;91.10;;;;;;4988375;28;20062;-54
2021/03/26 07:37:26;;;;;;;22.20;14.55;;;14.10;90.70;;;;;;5047268;28;20070;-52
2021/03/26 07:40:12;;;;;;;25.00;14.65;;;14.40;90.40;;;;;;5090328;28;20084;-50
2021/03/26 07:43:22;;;;;;;23.17;15.02;;;14.60;89.70;;;;;;5088431;28;20048;-49
2021/03/26 07:46:20;;;;;;;24.40;13.77;;;15.00;87.70;;;;;;5090162;28;20028;-52
2021/03/26 07:49:10;;;;;;;26.38;13.88;;;15.20;86.90;;;;;;5088716;28;20032;-58
2021/03/26 07:51:51;;;;;;;22.15;14.48;;;15.70;85.70;;;;;;5086027;28;20039;-51
2021/03/26 07:54:45;;;;;;;17.25;13.30;;;16.70;82.60;;;;;;5090750;28;20024;-56
2021/03/26 07:57:32;;;;;;;22.27;13.57;;;17.60;78.50;;;;;;5084218;28;20029;-52
2021/03/26 08:00:12;;;;;;;18.48;13.25;;;18.40;75.80;;;;;;5053537;28;20024;-49
2021/03/26 08:03:04;;;;;;;25.02;13.15;;;18.80;72.70;;;;;;5070439;28;20387;-51
2021/03/26 08:05:58;;;;;;;23.48;13.43;;;18.80;72.20;;;;;;5084183;28;20073;-61
2021/03/26 08:08:57;;;;;;;21.20;13.80;;;18.70;71.30;;;;;;5072657;28;20084;-51
2021/03/26 08:11:46;;;;;;;21.85;14.20;;;18.20;71.50;;;;;;5089726;28;20077;-54
2021/03/26 08:14:33;;;;;;;25.48;16.25;;;17.30;75.30;;;;;;5089254;28;20046;-52
2021/03/26 08:17:07;;;;;;;27.33;17.42;;;16.40;76.90;;;;;;5072777;28;20048;-53
2021/03/26 08:20:04;;;;;;;25.52;15.30;;;15.90;79.30;;;;;;5090767;28;20024;-50
2021/03/26 08:22:59;;;;;;;27.85;16.80;;;15.30;82.00;;;;;;5072705;28;20024;-55
2021/03/26 08:25:45;;;;;;;28.20;17.23;;;15.20;83.50;;;;;;5090595;28;20086;-53
2021/03/26 08:28:29;;;;;;;;;;;14.90;84.10;;;;;;5091442;28;20604;-50
2021/03/26 08:31:29;;;;;;;31.90;17.98;;;14.50;85.90;;;;;;5090724;28;19908;-50
2021/03/26 08:34:37;;;;;;;22.38;15.52;;;14.20;86.80;;;;;;5072707;28;20095;-53
2021/03/26 08:37:36;;;;;;;25.38;17.38;;;14.20;88.40;;;;;;5072787;28;20073;-58
2021/03/26 08:40:05;;;;;;;26.67;16.35;;;13.90;90.00;;;;;;5072832;28;20040;-51
2021/03/26 08:42:35;;;;;;;27.13;16.80;;;13.90;90.00;;;;;;5090495;28;20030;-47
2021/03/26 08:45:10;;;;;;;22.95;16.00;;;13.90;90.20;;;;;;5090578;28;20393;-48
2021/03/26 08:47:40;;;;;;;28.52;16.45;;;13.90;90.60;;;;;;5090535;28;20156;-47
2021/03/26 08:50:14;;;;;;;23.48;16.70;;;13.80;90.40;;;;;;5090958;28;20454;-55
2021/03/26 08:53:05;;;;;;;24.73;17.42;;;13.60;90.70;;;;;;5090350;28;20021;-57
2021/03/26 08:55:44;;;;;;;28.17;17.25;;;13.40;91.20;;;;;;5090385;28;20080;-52
2021/03/26 08:58:24;;;;;;;24.23;15.18;;;13.90;90.50;;;;;;5090327;28;20107;-55
2021/03/26 09:01:13;;;;;;;27.90;16.52;;;15.40;88.40;;;;;;5072182;28;20062;-55
2021/03/26 09:03:57;;;;;;;25.65;15.57;;;17.30;81.50;;;;;;5073259;28;20119;-57
2021/03/26 09:06:42;;;;;;;24.40;15.90;;;18.70;74.90;;;;;;5090424;28;20028;-52
2021/03/26 09:09:27;;;;;;;21.48;15.18;;;19.50;71.20;;;;;;5090290;28;20024;-60
2021/03/26 09:12:28;;;;;;;22.75;14.70;;;20.40;69.30;;;;;;5072024;28;20031;-59
2021/03/26 09:15:23;;;;;;;22.67;15.75;;;21.00;66.90;;;;;;5071797;28;20341;-55
2021/03/26 09:18:06;;;;;;;21.83;16.65;;;21.70;62.90;;;;;;5084432;28;20039;-61
2021/03/26 09:20:47;;;;;;;22.08;14.70;;;21.70;62.30;;;;;;5090183;28;20073;-45
2021/03/26 09:23:22;;;;;;;21.55;15.68;;;21.80;61.70;;;;;;5070791;28;20393;-54
2021/03/26 09:26:32;;;;;;;29.70;15.50;;;21.70;60.60;;;;;;5090472;28;20016;-48
2021/03/26 09:29:03;;;;;;;21.80;16.23;;;21.90;61.00;;;;;;5033796;28;20040;-49
2021/03/26 09:31:40;;;;;;;22.05;15.90;;;21.70;60.90;;;;;;5071845;28;20093;-52
2021/03/26 09:34:27;;;;;;;20.88;16.27;;;21.70;61.00;;;;;;5090238;28;20043;-47
2021/03/26 09:37:11;;;;;;;26.20;18.08;;;21.40;60.30;;;;;;5093622;28;20039;-48
2021/03/26 09:39:39;;;;;;;27.08;17.48;;;20.70;61.50;;;;;;5093521;28;20105;-54
2021/03/26 09:42:19;;;;;;;24.10;17.48;;;20.30;63.20;;;;;;5092940;28;20024;-53
2021/03/26 09:44:55;;;;;;;25.65;17.13;;;20.20;64.10;;;;;;5093360;28;20589;-50
2021/03/26 09:47:40;;;;;;;24.20;17.02;;;20.20;64.00;;;;;;5093537;28;20028;-50
2021/03/26 09:50:22;;;;;;;29.73;18.30;;;20.10;64.20;;;;;;5092904;28;20428;-47
2021/03/26 09:52:49;;;;;;;29.55;18.65;;;20.10;64.20;;;;;;5089921;28;20020;-45
2021/03/26 09:55:32;;;;;;;20.98;16.15;;;19.80;63.50;;;;;;5092221;28;20358;-46
2021/03/26 09:58:39;;;;;;;24.70;16.27;;;19.30;65.20;;;;;;5073035;28;20021;-47
2021/03/26 10:01:18;;;;;;;31.50;17.02;;;19.40;65.50;;;;;;5078870;28;20035;-47
2021/03/26 10:03:55;;;;;;;23.83;14.98;;;19.40;64.80;;;;;;5072551;28;20037;-51
2021/03/26 10:06:56;;;;;;;22.77;13.35;;;19.40;64.40;;;;;;5079442;28;20025;-44
2021/03/26 10:09:41;;;;;;;16.38;11.70;;;19.30;64.40;;;;;;5076860;28;20103;-49
2021/03/26 10:12:15;;;;;;;25.30;13.60;;;19.40;64.80;;;;;;5076730;28;20024;-45
2021/03/26 10:14:58;;;;;;;23.13;14.45;;;19.10;64.70;;;;;;5085566;28;20103;-48
2021/03/26 10:17:35;;;;;;;26.13;14.10;;;18.40;66.30;;;;;;5088852;28;20036;-45
2021/03/26 10:20:19;;;;;;;25.08;15.35;;;18.30;66.80;;;;;;5091680;28;20028;-47
2021/03/26 10:23:00;;;;;;;23.30;15.63;;;18.40;66.90;;;;;;5092607;28;20028;-48
2021/03/26 10:25:37;;;;;;;23.92;15.95;;;18.20;66.60;;;;;;5065584;28;20033;-57
2021/03/26 10:28:16;;;;;;;27.38;15.05;;;17.90;67.10;;;;;;5054623;28;20402;-47
2021/03/26 10:30:50;;;;;;;26.17;15.27;;;17.70;67.30;;;;;;5072324;28;20032;-51
2021/03/26 10:33:18;;;;;;;21.58;15.35;;;17.90;66.80;;;;;;5072218;28;20104;-47
2021/03/26 10:36:18;;;;;;;22.10;14.35;;;18.10;67.30;;;;;;5072279;28;20031;-45
2021/03/26 10:38:51;;;;;;;26.52;15.13;;;18.20;66.50;;;;;;5070671;28;20036;-50
2021/03/26 10:41:23;;;;;;;21.33;12.52;;;18.20;66.30;;;;;;5070528;28;20028;-48
2021/03/26 10:44:01;;;;;;;17.50;12.85;;;17.90;66.00;;;;;;5071729;28;20490;-45
2021/03/26 10:46:37;;;;;;;20.33;12.70;;;17.80;66.80;;;;;;5071363;28;20043;-49
2021/03/26 10:49:16;;;;;;;;;;;17.70;67.70;;;;;;5073263;28;20021;-49
2021/03/26 10:51:47;;;;;;;16.67;10.90;;;17.70;66.30;;;;;;5072822;28;19943;-48
2021/03/26 10:54:31;;;;;;;21.73;12.10;;;17.60;67.10;;;;;;5053988;28;20553;-47
2021/03/26 10:57:28;;;;;;;23.58;13.98;;;17.60;66.90;;;;;;5072338;28;20393;-50
2021/03/26 10:59:54;;;;;;;20.55;12.88;;;17.50;66.50;;;;;;5054000;28;20024;-48
2021/03/26 11:02:42;;;;;;;23.75;12.55;;;17.20;67.40;;;;;;5072141;28;20047;-48
2021/03/26 11:05:18;;;;;;;16.83;9.68;;;17.00;68.10;;;;;;5071515;28;20035;-50
2021/03/26 11:08:03;;;;;;;16.63;9.25;;;17.00;66.60;;;;;;5071646;28;20450;-48
2021/03/26 11:11:02;;;;;;;13.50;9.83;;;17.20;67.80;;;;;;5054014;28;20020;-49
2021/03/26 11:13:32;;;;;;;15.60;9.57;;;17.20;66.70;;;;;;5071463;28;20027;-50
2021/03/26 11:16:04;;;;;;;15.40;10.38;;;17.10;67.20;;;;;;5071943;28;20039;-47
2021/03/26 11:18:37;;;;;;;19.20;10.35;;;16.90;66.10;;;;;;5072012;28;20032;-51
2021/03/26 11:21:10;;;;;;;17.25;9.68;;;16.80;66.70;;;;;;5071240;28;20032;-48
2021/03/26 11:23:41;;;;;;;17.77;9.60;;;16.60;65.90;;;;;;5071863;28;20020;-49
2021/03/26 11:26:15;;;;;;;15.90;9.73;;;16.50;66.70;;;;;;5071864;28;20025;-49
2021/03/26 11:28:46;;;;;;;13.88;9.45;;;16.30;68.40;;;;;;5071557;28;20371;-50
2021/03/26 11:31:36;;;;;;;10.35;7.82;;;16.40;68.30;;;;;;5071351;28;20219;-48
2021/03/26 11:34:27;;;;;;;13.75;8.27;;;16.40;65.20;;;;;;5071074;28;20510;-49
2021/03/26 11:37:03;;;;;;;13.70;9.13;;;16.40;65.80;;;;;;5071515;28;20494;-48
2021/03/26 11:40:04;;;;;;;19.10;9.65;;;16.60;67.20;;;;;;5071462;28;20103;-46
2021/03/26 11:42:42;;;;;;;14.27;11.00;;;16.60;66.60;;;;;;4969903;28;20031;-50
2021/03/26 11:45:13;;;;;;;13.38;9.90;;;16.60;66.50;;;;;;5057904;28;20048;-49
2021/03/26 11:47:42;;;;;;;15.68;9.07;;;16.60;67.40;;;;;;5071014;28;20553;-48
2021/03/26 11:50:35;;;;;;;9.73;7.85;;;16.70;67.50;;;;;;5071066;28;20021;-47
2021/03/26 11:53:19;;;;;;;10.27;8.55;;;16.80;64.80;;;;;;5070894;28;20029;-46
2021/03/26 11:55:59;;;;;;;17.33;8.88;;;16.80;65.10;;;;;;5071071;28;20367;-48
2021/03/26 11:58:32;;;;;;;14.65;8.23;;;16.80;65.90;;;;;;5070448;28;20213;-45
2021/03/26 12:01:03;;;;;;;15.82;8.93;;;16.90;66.90;;;;;;5070874;28;20052;-49
2021/03/26 12:03:57;;;;;;;20.60;9.82;;;16.90;66.70;;;;;;5070414;28;20491;-48
2021/03/26 12:06:42;;;;;;;13.27;9.23;;;16.90;66.30;;;;;;5070479;28;20054;-48
2021/03/26 12:09:31;;;;;;;15.70;10.23;;;16.90;66.70;;;;;;5070905;28;20529;-48
2021/03/26 12:12:19;;;;;;;18.13;10.15;;;16.90;66.30;;;;;;5070768;28;20104;-44
2021/03/26 12:14:57;;;;;;;15.48;9.45;;;16.70;66.10;;;;;;5070860;28;20405;-50
2021/03/26 12:17:38;;;;;;;13.90;9.77;;;16.50;66.70;;;;;;5070964;28;20095;-46
2021/03/26 12:20:16;;;;;;;12.13;9.98;;;16.50;67.40;;;;;;5070613;28;20024;-47
2021/03/26 12:23:10;;;;;;;13.63;9.98;;;16.60;66.40;;;;;;5070126;28;20052;-51
2021/03/26 12:25:55;;;;;;;15.80;9.98;;;16.40;66.00;;;;;;5071181;28;20389;-47
2021/03/26 12:28:42;;;;;;;18.42;9.98;;;16.30;66.40;;;;;;5070664;28;20102;-48
2021/03/26 12:31:29;;;;;;;15.05;10.10;;;16.30;66.70;;;;;;5070912;28;20036;-53
2021/03/26 12:34:06;;;;;;;13.10;8.88;;;16.30;67.60;;;;;;5070274;28;20043;-49
2021/03/26 12:36:44;;;;;;;14.40;9.93;;;16.20;66.80;;;;;;5070720;28;20491;-44
2021/03/26 12:39:37;;;;;;;14.10;9.20;;;16.20;67.40;;;;;;5070486;28;20029;-52
2021/03/26 12:42:21;;;;;;;17.88;9.73;;;16.20;66.90;;;;;;5070741;28;20513;-51
2021/03/26 12:45:03;;;;;;;15.30;8.73;;;16.20;66.90;;;;;;5051696;28;20029;-50
2021/03/26 12:47:33;;;;;;;14.55;8.52;;;16.40;67.40;;;;;;5070883;28;20037;-46
2021/03/26 12:50:03;;;;;;;11.90;7.90;;;16.60;67.00;;;;;;5071003;28;20021;-48
2021/03/26 12:52:55;;;;;;;15.57;8.65;;;16.90;65.30;;;;;;5070974;28;20391;-46
2021/03/26 12:55:24;;;;;;;12.77;8.60;;;17.00;64.40;;;;;;5070665;28;20134;-48
2021/03/26 12:58:15;;;;;;;11.68;9.55;;;17.00;64.20;;;;;;5090764;22;20056;-46
2021/03/26 13:00:53;;;;;;;13.45;8.77;;;17.00;64.00;;;;;;5103818;28;20459;-47
2021/03/26 13:03:28;;;;;;;16.48;8.25;;;16.90;64.40;;;;;;5109706;28;20024;-47
2021/03/26 13:06:03;;;;;;;18.13;8.43;;;16.90;63.90;;;;;;5109499;28;20020;-47
2021/03/26 13:08:31;;;;;;;;;;;17.00;64.70;;;;;;5111794;28;20059;-48
2021/03/26 13:11:31;;;;;;;12.35;8.98;;;16.90;64.10;;;;;;5096562;28;20269;-47
2021/03/26 13:14:28;;;;;;;12.27;9.07;;;16.70;64.70;;;;;;5113362;28;20442;-47
2021/03/26 13:16:55;;;;;;;13.85;8.85;;;16.60;65.20;;;;;;5114467;28;20020;-50
2021/03/26 13:19:21;;;;;;;13.05;9.32;;;16.50;65.40;;;;;;5114394;28;20019;-50
2021/03/26 13:22:24;;;;;;;13.68;9.05;;;16.50;65.40;;;;;;5114385;28;20059;-47
2021/03/26 13:25:12;;;;;;;18.05;9.43;;;16.40;65.90;;;;;;5113754;28;20016;-47
2021/03/26 13:28:05;;;;;;;11.93;8.07;;;16.40;65.30;;;;;;5114640;28;20036;-48
2021/03/26 13:30:36;;;;;;;12.45;8.43;;;16.50;67.30;;;;;;5114284;28;20024;-47
2021/03/26 13:33:14;;;;;;;13.10;8.77;;;16.60;65.40;;;;;;5113835;28;20027;-46
2021/03/26 13:35:55;;;;;;;12.82;9.10;;;16.70;65.80;;;;;;5113726;28;20030;-48
2021/03/26 13:38:34;;;;;;;13.38;8.00;;;16.80;64.00;;;;;;5113873;28;20016;-47